• Join FlightAware (Why Join?)
  • Login
  • US Flag 
10:42PM EST


 

Airport Tracker/Info


-or-


 

Live Flight TrackerFlight Track Log ✈ RPA3496 ✈ 14-May-2014 ✈ KBOS - KPHL

Flight Track Log - Related Links

Times and Time Zones

All times are in EDT time to prevent confusion due to time zone crossing. See the RPA3496 flight status page for this flight to view local times or setup timezone preferences in your user account.

Time Position Orientation Groundspeed Altitude Reporting Facility
EDT Latitude Longitude Course Direction KTS MPH feet Rate Location/Type
12:12PM 42.3667 -70.9833 160° South 145 167 900  Level KA90
12:12PM 42.3667 -70.9500 90° East 146 168 1,600 2,040 Climbing KA90
12:13PM 42.3833 -70.8667 75° East 222 255 4,000 2,040 Climbing KA90
12:14PM 42.4315 -70.7871 118° Southeast  Level FlightAware Approximate
12:14PM 42.3875 -70.8325 81° East 221 254 4,900  Level Boston Center
12:15PM 42.3770 -70.7270 144° Southeast  Level FlightAware Approximate
12:15PM 42.3714 -70.7300 102° East 276 318 7,800  Level Boston Center
12:16PM 42.3058 -70.6923 164° South  Level FlightAware Approximate
12:16PM 42.2764 -70.6753 157° South 307 353 10,800  Level Boston Center
12:17PM 42.2364 -70.6515 160° South  Level FlightAware Approximate
12:17PM 42.1875 -70.6353 162° South 329 379 13,300  Level Boston Center
12:18PM 42.0922 -70.6347 180° South 347 399 15,900 2,220 Climbing Boston Center
12:19PM 42.0019 -70.6742 198° South 344 396 17,900 1,980 Climbing Boston Center
12:20PM 41.9075 -70.7169 199° South 358 412 20,000 1,560 Climbing Boston Center
12:21PM 41.8103 -70.7650 200° South 372 428 21,100 1,140 Climbing Boston Center
12:22PM 41.7103 -70.8428 210° Southwest 409 471 22,400 1,440 Climbing Boston Center
12:23PM 41.5875 -70.9350 209° Southwest 422 486 24,100 1,440 Climbing Boston Center
12:24PM 41.4989 -71.0417 222° Southwest 433 498 25,400 1,320 Climbing Boston Center
12:25PM 41.4228 -71.1678 231° Southwest 435 501 26,800 960 Climbing Boston Center
12:26PM 41.3528 -71.2781 230° Southwest 439 505 27,500 540 Climbing Boston Center
12:27PM 41.2633 -71.4222 230° Southwest 454 522 28,000 240 Climbing Boston Center
12:28PM 41.1825 -71.5536 231° Southwest 459 528 28,000  Level Boston Center
12:29PM 41.1214 -71.7178 244° Southwest 461 531 28,000  Level Boston Center
12:30PM 41.0697 -71.8706 246° West 460 529 28,000  Level Boston Center
12:31PM 41.0183 -72.0242 246° West 460 529 28,000  Level Boston Center
12:32PM 40.9603 -72.1983 246° West 460 529 28,000  Level Boston Center
12:33PM 40.8961 -72.3414 239° Southwest 459 528 28,000  Level Boston Center
12:34PM 40.8033 -72.4553 223° Southwest 453 521 28,000  Level Boston Center
12:35PM 40.7197 -72.5569 223° Southwest 454 522 28,000 -360 Level Boston Center
12:36PM 40.6275 -72.6706 223° Southwest 454 522 27,300 -1,800 Descending Boston Center
12:37PM 40.5183 -72.8031 223° Southwest 446 513 24,400 -2,520 Descending Boston Center
12:38PM 40.4314 -72.9097 223° Southwest 432 497 22,200 -2,220 Descending Boston Center
12:39PM 40.3467 -73.0108 222° Southwest 415 478 20,000 -1,140 Descending Boston Center
12:40PM 40.2633 -73.1111 223° Southwest 412 474 20,000  Level Boston Center
12:41PM 40.1769 -73.2133 222° Southwest 410 472 20,000  Level Boston Center
12:42PM 40.0950 -73.3133 223° Southwest 406 467 20,000  Level Boston Center
12:43PM 40.0100 -73.4128 222° Southwest 407 468 20,000  Level Boston Center
12:44PM 39.9294 -73.5094 223° Southwest 407 468 20,000  Level Boston Center
12:45PM 39.8542 -73.6175 228° Southwest 405 466 20,000 -480 Level Boston Center
12:46PM 39.7783 -73.7367 230° Southwest 403 464 19,200 -1,140 Descending Washington Center
12:47PM 39.7092 -73.8464 231° Southwest 403 464 18,000 -1,380 Descending Washington Center
12:48PM 39.6439 -73.9503 231° Southwest 398 458 16,500 -1,500 Descending Washington Center
12:49PM 39.5786 -74.0542 231° Southwest 387 445 15,000 -1,320 Descending Washington Center
12:50PM 39.5258 -74.1603 237° Southwest 375 432 13,900 -600 Descending Washington Center
12:51PM 39.5250 -74.2894 270° West 347 399 13,900 -120 Level Washington Center
12:52PM 39.5286 -74.4158 272° West 353 406 13,700 -1,200 Descending Washington Center
12:54PM 39.5333 -74.6333 272° West 302 348 10,600 -1,680 Descending Philadelphia TRACON
12:55PM 39.5333 -74.7333 270° West 281 323 9,100 -1,200 Descending Philadelphia TRACON
12:56PM 39.5333 -74.8333 270° West 279 321 8,400 -1,080 Descending Philadelphia TRACON
12:57PM 39.5333 -74.9167 270° West 273 314 7,100 -1,200 Descending Philadelphia TRACON
12:58PM 39.5500 -75.0167 282° West 268 308 6,000 -600 Descending Philadelphia TRACON
12:59PM 39.5500 -75.1167 270° West 274 315 6,000  Level Philadelphia TRACON
01:00PM 39.5667 -75.2167 282° West 281 323 6,000  Level Philadelphia TRACON
01:01PM 39.6333 -75.2833 322° Northwest 284 327 6,000  Level Philadelphia TRACON
01:02PM 39.7000 -75.3333 330° Northwest 282 325 6,000  Level Philadelphia TRACON
01:03PM 39.7333 -75.4167 298° West 182 209 6,000  Level Philadelphia TRACON
01:04PM 39.7167 -75.4667 247° West 192 221 6,000 -60 Level Philadelphia TRACON
01:05PM 39.7000 -75.5500 255° West 196 226 5,900 -720 Descending Philadelphia TRACON
01:06PM 39.6833 -75.6167 252° West 195 224 4,600 -960 Descending Philadelphia TRACON
01:07PM 39.7167 -75.6500 322° Northwest 206 237 4,000 -300 Descending Philadelphia TRACON
01:08PM 39.7667 -75.6333 14° North 201 231 4,000  Level Philadelphia TRACON
01:09PM 39.8000 -75.5833 49° Northeast 199 229 4,000 -180 Level Philadelphia TRACON
01:10PM 39.8167 -75.5167 72° East 192 221 3,700 -660 Descending Philadelphia TRACON
01:11PM 39.8333 -75.4500 72° East 188 216 2,700 -1,020 Descending Philadelphia TRACON
01:12PM 39.8333 -75.3833 90° East 180 207 1,700 -900 Descending Philadelphia TRACON
01:13PM 39.8500 -75.3333 67° East 126 145 1,000 -720 Descending Philadelphia TRACON
01:14PM 39.8667 -75.2833 67° East 129 148 300 -720 Descending Philadelphia TRACON
01:16PM 39.8667 -75.2333 57° Northeast  Level FlightAware Approximate
01:23PM 39.8722 -75.2409 57° Northeast  Level Estimated